sensor_id;sensor_type;location;lat;lon;timestamp;pressure;altitude;pressure_sealevel;temperature;humidity
48364;BME280;34170;54.364;18.582;2023-02-19T00:01:46;99408.59;;;3.80;100.00
48364;BME280;34170;54.364;18.582;2023-02-19T00:04:19;99420.78;;;3.82;100.00
48364;BME280;34170;54.364;18.582;2023-02-19T00:06:48;99415.47;;;3.82;100.00
48364;BME280;34170;54.364;18.582;2023-02-19T00:09:18;99403.78;;;3.74;100.00
48364;BME280;34170;54.364;18.582;2023-02-19T00:11:46;99413.06;;;3.68;100.00
48364;BME280;34170;54.364;18.582;2023-02-19T00:14:19;99414.41;;;3.74;100.00
48364;BME280;34170;54.364;18.582;2023-02-19T00:16:47;99420.19;;;3.79;100.00
48364;BME280;34170;54.364;18.582;2023-02-19T00:19:17;99426.13;;;3.71;100.00
48364;BME280;34170;54.364;18.582;2023-02-19T00:21:45;99422.94;;;4.00;100.00
48364;BME280;34170;54.364;18.582;2023-02-19T00:24:13;99428.50;;;3.97;100.00
48364;BME280;34170;54.364;18.582;2023-02-19T00:26:42;99431.47;;;4.15;100.00
48364;BME280;34170;54.364;18.582;2023-02-19T00:29:12;99427.41;;;3.99;100.00
48364;BME280;34170;54.364;18.582;2023-02-19T00:31:41;99434.41;;;4.00;100.00
48364;BME280;34170;54.364;18.582;2023-02-19T00:34:10;99415.38;;;4.16;99.61
48364;BME280;34170;54.364;18.582;2023-02-19T00:36:38;99411.47;;;3.99;99.64
48364;BME280;34170;54.364;18.582;2023-02-19T00:39:07;99416.97;;;4.08;100.00
48364;BME280;34170;54.364;18.582;2023-02-19T00:41:34;99427.66;;;3.96;100.00
48364;BME280;34170;54.364;18.582;2023-02-19T00:44:04;99432.25;;;3.94;100.00
48364;BME280;34170;54.364;18.582;2023-02-19T00:46:34;99429.69;;;4.15;99.15
48364;BME280;34170;54.364;18.582;2023-02-19T00:49:04;99427.44;;;3.88;100.00
48364;BME280;34170;54.364;18.582;2023-02-19T00:51:35;99444.88;;;3.81;100.00
48364;BME280;34170;54.364;18.582;2023-02-19T00:54:03;99438.53;;;3.93;100.00
48364;BME280;34170;54.364;18.582;2023-02-19T00:56:31;99439.13;;;3.97;100.00
48364;BME280;34170;54.364;18.582;2023-02-19T00:58:59;99439.47;;;4.15;99.63
48364;BME280;34170;54.364;18.582;2023-02-19T01:01:27;99441.78;;;3.97;99.49
48364;BME280;34170;54.364;18.582;2023-02-19T01:03:55;99432.84;;;3.98;99.49
48364;BME280;34170;54.364;18.582;2023-02-19T01:06:22;99444.34;;;3.98;99.34
48364;BME280;34170;54.364;18.582;2023-02-19T01:08:50;99423.78;;;4.00;99.22
48364;BME280;34170;54.364;18.582;2023-02-19T01:11:17;99435.53;;;3.98;98.39
48364;BME280;34170;54.364;18.582;2023-02-19T01:13:46;99436.31;;;4.21;98.32
48364;BME280;34170;54.364;18.582;2023-02-19T01:16:20;99436.97;;;4.34;97.80
48364;BME280;34170;54.364;18.582;2023-02-19T01:18:48;99420.28;;;4.44;95.98
48364;BME280;34170;54.364;18.582;2023-02-19T01:21:22;99423.47;;;4.26;97.15
48364;BME280;34170;54.364;18.582;2023-02-19T01:23:51;99413.47;;;4.07;98.29
48364;BME280;34170;54.364;18.582;2023-02-19T01:26:24;99417.31;;;4.26;98.06
48364;BME280;34170;54.364;18.582;2023-02-19T01:28:52;99428.69;;;4.16;96.90
48364;BME280;34170;54.364;18.582;2023-02-19T01:31:21;99435.47;;;4.20;97.51
48364;BME280;34170;54.364;18.582;2023-02-19T01:33:56;99449.50;;;4.55;96.02
48364;BME280;34170;54.364;18.582;2023-02-19T01:36:24;99450.59;;;4.52;96.03
48364;BME280;34170;54.364;18.582;2023-02-19T01:38:52;99445.91;;;4.45;95.85
48364;BME280;34170;54.364;18.582;2023-02-19T01:41:22;99445.03;;;4.55;95.44
48364;BME280;34170;54.364;18.582;2023-02-19T01:46:33;99440.00;;;4.94;93.22
48364;BME280;34170;54.364;18.582;2023-02-19T01:51:36;99438.88;;;4.76;92.98
48364;BME280;34170;54.364;18.582;2023-02-19T01:54:06;99434.88;;;4.49;93.49
48364;BME280;34170;54.364;18.582;2023-02-19T01:56:36;99428.38;;;4.42;94.35
48364;BME280;34170;54.364;18.582;2023-02-19T01:59:06;99436.78;;;4.15;95.94
48364;BME280;34170;54.364;18.582;2023-02-19T02:01:36;99427.31;;;4.33;95.56
48364;BME280;34170;54.364;18.582;2023-02-19T02:04:05;99436.38;;;4.31;94.63
48364;BME280;34170;54.364;18.582;2023-02-19T02:06:40;99433.00;;;4.61;94.81
48364;BME280;34170;54.364;18.582;2023-02-19T02:09:09;99432.34;;;4.48;95.34
48364;BME280;34170;54.364;18.582;2023-02-19T02:11:56;99418.19;;;4.47;94.09
48364;BME280;34170;54.364;18.582;2023-02-19T02:14:27;99422.19;;;4.42;95.20
48364;BME280;34170;54.364;18.582;2023-02-19T02:19:44;99431.03;;;4.74;93.76
48364;BME280;34170;54.364;18.582;2023-02-19T02:22:20;99431.28;;;4.71;93.39
48364;BME280;34170;54.364;18.582;2023-02-19T02:30:37;99446.13;;;4.53;95.59
48364;BME280;34170;54.364;18.582;2023-02-19T02:33:23;99429.28;;;4.31;96.90
48364;BME280;34170;54.364;18.582;2023-02-19T02:36:21;99426.25;;;4.57;96.10
48364;BME280;34170;54.364;18.582;2023-02-19T02:38:50;99412.84;;;4.26;97.20
48364;BME280;34170;54.364;18.582;2023-02-19T02:41:22;99419.69;;;4.61;96.30
48364;BME280;34170;54.364;18.582;2023-02-19T02:43:50;99402.94;;;4.17;96.57
48364;BME280;34170;54.364;18.582;2023-02-19T02:46:22;99409.53;;;4.34;96.35
48364;BME280;34170;54.364;18.582;2023-02-19T02:48:55;99408.09;;;4.30;97.12
48364;BME280;34170;54.364;18.582;2023-02-19T02:54:13;99402.44;;;4.23;97.41
48364;BME280;34170;54.364;18.582;2023-02-19T02:57:07;99402.88;;;3.96;98.73
48364;BME280;34170;54.364;18.582;2023-02-19T02:59:43;99411.66;;;4.19;98.35
48364;BME280;34170;54.364;18.582;2023-02-19T03:02:13;99415.34;;;3.95;99.94
48364;BME280;34170;54.364;18.582;2023-02-19T03:10:43;99429.56;;;4.06;99.26
48364;BME280;34170;54.364;18.582;2023-02-19T03:13:26;99419.47;;;3.77;100.00
48364;BME280;34170;54.364;18.582;2023-02-19T03:16:20;99414.41;;;3.74;100.00
48364;BME280;34170;54.364;18.582;2023-02-19T03:19:12;99418.16;;;3.71;100.00
48364;BME280;34170;54.364;18.582;2023-02-19T03:21:52;99413.06;;;3.68;100.00
48364;BME280;34170;54.364;18.582;2023-02-19T03:24:24;99425.38;;;3.80;100.00
48364;BME280;34170;54.364;18.582;2023-02-19T03:27:13;99427.28;;;4.01;99.92
48364;BME280;34170;54.364;18.582;2023-02-19T03:29:46;99426.47;;;3.89;100.00
48364;BME280;34170;54.364;18.582;2023-02-19T03:32:23;99433.75;;;3.65;100.00
48364;BME280;34170;54.364;18.582;2023-02-19T03:34:56;99422.16;;;3.43;100.00
48364;BME280;34170;54.364;18.582;2023-02-19T03:37:36;99429.38;;;3.52;100.00
48364;BME280;34170;54.364;18.582;2023-02-19T03:40:05;99434.00;;;3.61;100.00
48364;BME280;34170;54.364;18.582;2023-02-19T03:42:46;99433.88;;;3.74;100.00
48364;BME280;34170;54.364;18.582;2023-02-19T03:45:37;99439.66;;;3.79;100.00
48364;BME280;34170;54.364;18.582;2023-02-19T03:48:25;99434.84;;;3.62;100.00
48364;BME280;34170;54.364;18.582;2023-02-19T03:51:31;99417.88;;;3.86;100.00
48364;BME280;34170;54.364;18.582;2023-02-19T03:54:33;99423.34;;;3.50;100.00
48364;BME280;34170;54.364;18.582;2023-02-19T03:57:17;99412.72;;;3.16;100.00
48364;BME280;34170;54.364;18.582;2023-02-19T03:59:51;99419.47;;;3.09;100.00
48364;BME280;34170;54.364;18.582;2023-02-19T04:02:33;99419.25;;;3.35;100.00
48364;BME280;34170;54.364;18.582;2023-02-19T04:05:09;99432.75;;;3.09;100.00
48364;BME280;34170;54.364;18.582;2023-02-19T04:07:44;99427.47;;;3.20;100.00
48364;BME280;34170;54.364;18.582;2023-02-19T04:10:16;99418.03;;;3.16;100.00
48364;BME280;34170;54.364;18.582;2023-02-19T04:12:53;99429.25;;;3.20;100.00
48364;BME280;34170;54.364;18.582;2023-02-19T04:15:28;99411.97;;;3.03;100.00
48364;BME280;34170;54.364;18.582;2023-02-19T04:18:04;99427.22;;;3.23;100.00
48364;BME280;34170;54.364;18.582;2023-02-19T04:20:41;99425.31;;;3.26;100.00
48364;BME280;34170;54.364;18.582;2023-02-19T04:23:11;99420.44;;;3.19;100.00
48364;BME280;34170;54.364;18.582;2023-02-19T04:25:41;99414.66;;;3.26;100.00
48364;BME280;34170;54.364;18.582;2023-02-19T04:28:12;99425.03;;;3.17;100.00
48364;BME280;34170;54.364;18.582;2023-02-19T04:30:41;99413.91;;;3.23;100.00
48364;BME280;34170;54.364;18.582;2023-02-19T04:33:08;99411.75;;;3.06;100.00
48364;BME280;34170;54.364;18.582;2023-02-19T04:35:36;99411.00;;;2.93;100.00
48364;BME280;34170;54.364;18.582;2023-02-19T04:38:03;99407.28;;;3.07;100.00
48364;BME280;34170;54.364;18.582;2023-02-19T04:40:31;99408.59;;;3.23;100.00
48364;BME280;34170;54.364;18.582;2023-02-19T04:42:58;99411.91;;;3.38;100.00
48364;BME280;34170;54.364;18.582;2023-02-19T04:45:25;99403.28;;;3.23;100.00
48364;BME280;34170;54.364;18.582;2023-02-19T04:47:53;99415.84;;;3.10;100.00
48364;BME280;34170;54.364;18.582;2023-02-19T04:50:20;99395.31;;;3.12;100.00
48364;BME280;34170;54.364;18.582;2023-02-19T04:52:49;99408.50;;;3.14;100.00
48364;BME280;34170;54.364;18.582;2023-02-19T04:55:17;99409.22;;;3.16;100.00
48364;BME280;34170;54.364;18.582;2023-02-19T04:57:44;99411.53;;;3.32;100.00
48364;BME280;34170;54.364;18.582;2023-02-19T05:00:12;99405.72;;;3.27;100.00
48364;BME280;34170;54.364;18.582;2023-02-19T05:02:40;99419.22;;;3.23;100.00
48364;BME280;34170;54.364;18.582;2023-02-19T05:05:07;99406.22;;;3.20;100.00
48364;BME280;34170;54.364;18.582;2023-02-19T05:07:35;99416.31;;;3.04;100.00
48364;BME280;34170;54.364;18.582;2023-02-19T05:10:02;99417.31;;;3.14;100.00
48364;BME280;34170;54.364;18.582;2023-02-19T05:12:30;99406.22;;;3.32;100.00
48364;BME280;34170;54.364;18.582;2023-02-19T05:14:57;99414.53;;;3.04;100.00
48364;BME280;34170;54.364;18.582;2023-02-19T05:17:25;99410.28;;;3.02;100.00
48364;BME280;34170;54.364;18.582;2023-02-19T05:19:52;99416.84;;;3.20;100.00
48364;BME280;34170;54.364;18.582;2023-02-19T05:22:20;99421.16;;;3.21;100.00
48364;BME280;34170;54.364;18.582;2023-02-19T05:24:47;99421.06;;;3.23;100.00
48364;BME280;34170;54.364;18.582;2023-02-19T05:27:15;99415.47;;;3.15;100.00
48364;BME280;34170;54.364;18.582;2023-02-19T05:29:42;99418.13;;;3.15;100.00
48364;BME280;34170;54.364;18.582;2023-02-19T05:32:09;99421.44;;;3.30;100.00
48364;BME280;34170;54.364;18.582;2023-02-19T05:34:37;99424.03;;;2.96;100.00
48364;BME280;34170;54.364;18.582;2023-02-19T05:37:04;99430.09;;;3.09;100.00
48364;BME280;34170;54.364;18.582;2023-02-19T05:39:31;99433.72;;;3.31;100.00
48364;BME280;34170;54.364;18.582;2023-02-19T05:41:59;99425.53;;;3.34;100.00
48364;BME280;34170;54.364;18.582;2023-02-19T05:44:26;99423.09;;;3.19;100.00
48364;BME280;34170;54.364;18.582;2023-02-19T05:46:54;99422.38;;;3.06;100.00
48364;BME280;34170;54.364;18.582;2023-02-19T05:49:21;99430.25;;;3.30;100.00
48364;BME280;34170;54.364;18.582;2023-02-19T05:51:49;99423.84;;;3.33;100.00
48364;BME280;34170;54.364;18.582;2023-02-19T05:54:17;99430.00;;;3.22;100.00
48364;BME280;34170;54.364;18.582;2023-02-19T05:56:44;99438.09;;;3.32;100.00
48364;BME280;34170;54.364;18.582;2023-02-19T05:59:17;99430.22;;;3.41;100.00
48364;BME280;34170;54.364;18.582;2023-02-19T06:01:46;99439.31;;;3.39;100.00
48364;BME280;34170;54.364;18.582;2023-02-19T06:04:14;99428.91;;;3.36;100.00
48364;BME280;34170;54.364;18.582;2023-02-19T06:06:42;99437.38;;;3.41;100.00
48364;BME280;34170;54.364;18.582;2023-02-19T06:09:09;99436.66;;;3.61;100.00
48364;BME280;34170;54.364;18.582;2023-02-19T06:11:38;99429.78;;;3.48;100.00
48364;BME280;34170;54.364;18.582;2023-02-19T06:14:05;99445.56;;;3.72;100.00
48364;BME280;34170;54.364;18.582;2023-02-19T06:16:33;99453.09;;;3.44;100.00
48364;BME280;34170;54.364;18.582;2023-02-19T06:19:01;99443.66;;;3.51;100.00
48364;BME280;34170;54.364;18.582;2023-02-19T06:21:30;99458.66;;;3.63;100.00
48364;BME280;34170;54.364;18.582;2023-02-19T06:23:57;99457.34;;;3.58;100.00
48364;BME280;34170;54.364;18.582;2023-02-19T06:26:25;99461.53;;;3.94;100.00
48364;BME280;34170;54.364;18.582;2023-02-19T06:28:53;99463.59;;;3.91;100.00
48364;BME280;34170;54.364;18.582;2023-02-19T06:31:21;99478.47;;;3.82;100.00
48364;BME280;34170;54.364;18.582;2023-02-19T06:33:49;99479.19;;;3.95;100.00
48364;BME280;34170;54.364;18.582;2023-02-19T06:36:20;99473.06;;;4.27;100.00
48364;BME280;34170;54.364;18.582;2023-02-19T06:38:48;99485.59;;;3.93;100.00
48364;BME280;34170;54.364;18.582;2023-02-19T06:41:16;99484.56;;;4.28;100.00
48364;BME280;34170;54.364;18.582;2023-02-19T06:43:43;99489.94;;;4.05;100.00
48364;BME280;34170;54.364;18.582;2023-02-19T06:46:13;99490.78;;;3.60;100.00
48364;BME280;34170;54.364;18.582;2023-02-19T06:48:42;99486.38;;;4.27;100.00
48364;BME280;34170;54.364;18.582;2023-02-19T06:51:15;99492.19;;;4.21;100.00
48364;BME280;34170;54.364;18.582;2023-02-19T06:53:45;99490.13;;;4.25;100.00
48364;BME280;34170;54.364;18.582;2023-02-19T06:56:32;99494.16;;;4.19;100.00
48364;BME280;34170;54.364;18.582;2023-02-19T06:59:02;99504.06;;;4.06;100.00
48364;BME280;34170;54.364;18.582;2023-02-19T07:01:32;99510.09;;;4.08;100.00
48364;BME280;34170;54.364;18.582;2023-02-19T07:04:00;99517.97;;;4.20;100.00
48364;BME280;34170;54.364;18.582;2023-02-19T07:06:28;99516.59;;;4.37;100.00
48364;BME280;34170;54.364;18.582;2023-02-19T07:08:57;99514.25;;;4.88;100.00
48364;BME280;34170;54.364;18.582;2023-02-19T07:11:27;99519.41;;;4.68;100.00
48364;BME280;34170;54.364;18.582;2023-02-19T07:14:00;99520.88;;;4.72;100.00
48364;BME280;34170;54.364;18.582;2023-02-19T07:16:28;99527.66;;;5.19;99.05
48364;BME280;34170;54.364;18.582;2023-02-19T07:18:57;99540.56;;;5.34;97.00
48364;BME280;34170;54.364;18.582;2023-02-19T07:21:26;99531.47;;;5.58;95.40
48364;BME280;34170;54.364;18.582;2023-02-19T07:23:53;99537.75;;;6.09;91.91
48364;BME280;34170;54.364;18.582;2023-02-19T07:26:21;99527.34;;;6.06;89.40
48364;BME280;34170;54.364;18.582;2023-02-19T07:28:49;99540.59;;;6.67;85.13
48364;BME280;34170;54.364;18.582;2023-02-19T07:31:20;99530.47;;;6.71;83.82
48364;BME280;34170;54.364;18.582;2023-02-19T07:33:48;99530.50;;;6.21;86.64
48364;BME280;34170;54.364;18.582;2023-02-19T07:36:17;99546.31;;;6.53;84.80
48364;BME280;34170;54.364;18.582;2023-02-19T07:38:45;99545.53;;;6.82;82.70
48364;BME280;34170;54.364;18.582;2023-02-19T07:41:13;99547.19;;;6.83;82.14
48364;BME280;34170;54.364;18.582;2023-02-19T07:43:40;99545.50;;;7.40;78.33
48364;BME280;34170;54.364;18.582;2023-02-19T07:46:10;99552.00;;;8.23;71.85
48364;BME280;34170;54.364;18.582;2023-02-19T07:48:39;99555.59;;;9.41;66.06
48364;BME280;34170;54.364;18.582;2023-02-19T07:51:10;99566.34;;;9.67;62.88
48364;BME280;34170;54.364;18.582;2023-02-19T07:53:38;99564.16;;;9.62;62.36
48364;BME280;34170;54.364;18.582;2023-02-19T07:56:06;99559.84;;;9.25;64.30
48364;BME280;34170;54.364;18.582;2023-02-19T07:58:34;99574.00;;;9.80;59.52
48364;BME280;34170;54.364;18.582;2023-02-19T08:01:18;99570.63;;;8.97;62.65
48364;BME280;34170;54.364;18.582;2023-02-19T08:04:06;99568.63;;;8.82;64.20
48364;BME280;34170;54.364;18.582;2023-02-19T08:06:33;99572.69;;;9.58;60.65
48364;BME280;34170;54.364;18.582;2023-02-19T08:09:01;99578.56;;;10.14;58.59
48364;BME280;34170;54.364;18.582;2023-02-19T08:11:29;99579.81;;;10.27;55.51
48364;BME280;34170;54.364;18.582;2023-02-19T08:14:15;99587.28;;;10.93;54.04
48364;BME280;34170;54.364;18.582;2023-02-19T08:16:50;99594.56;;;12.15;49.91
48364;BME280;34170;54.364;18.582;2023-02-19T08:19:18;99598.72;;;12.34;48.67
48364;BME280;34170;54.364;18.582;2023-02-19T08:21:46;99598.56;;;13.30;46.83
48364;BME280;34170;54.364;18.582;2023-02-19T08:24:13;99606.16;;;13.03;47.03
48364;BME280;34170;54.364;18.582;2023-02-19T08:26:41;99607.66;;;13.37;44.53
48364;BME280;34170;54.364;18.582;2023-02-19T08:29:08;99619.19;;;12.60;46.35
48364;BME280;34170;54.364;18.582;2023-02-19T08:31:36;99618.25;;;12.36;47.26
48364;BME280;34170;54.364;18.582;2023-02-19T08:34:04;99615.75;;;10.53;50.33
48364;BME280;34170;54.364;18.582;2023-02-19T08:36:31;99605.19;;;10.25;52.82
48364;BME280;34170;54.364;18.582;2023-02-19T08:38:59;99620.81;;;10.64;51.35
48364;BME280;34170;54.364;18.582;2023-02-19T08:41:26;99635.84;;;11.58;48.74
48364;BME280;34170;54.364;18.582;2023-02-19T08:43:54;99627.09;;;11.73;47.22
48364;BME280;34170;54.364;18.582;2023-02-19T08:46:21;99634.09;;;10.05;51.23
48364;BME280;34170;54.364;18.582;2023-02-19T08:48:49;99632.50;;;9.14;52.90
48364;BME280;34170;54.364;18.582;2023-02-19T08:51:16;99631.78;;;10.10;51.16
48364;BME280;34170;54.364;18.582;2023-02-19T08:53:44;99643.47;;;10.87;49.67
48364;BME280;34170;54.364;18.582;2023-02-19T08:56:14;99638.22;;;10.86;49.50
48364;BME280;34170;54.364;18.582;2023-02-19T08:58:42;99649.28;;;9.96;49.47
48364;BME280;34170;54.364;18.582;2023-02-19T09:01:12;99645.16;;;11.05;48.07
48364;BME280;34170;54.364;18.582;2023-02-19T09:03:41;99649.59;;;11.22;47.41
48364;BME280;34170;54.364;18.582;2023-02-19T09:06:13;99644.00;;;11.07;46.30
48364;BME280;34170;54.364;18.582;2023-02-19T09:08:41;99652.56;;;13.38;41.96
48364;BME280;34170;54.364;18.582;2023-02-19T09:11:08;99664.56;;;14.35;40.05
48364;BME280;34170;54.364;18.582;2023-02-19T09:13:36;99671.22;;;13.71;40.03
48364;BME280;34170;54.364;18.582;2023-02-19T09:16:04;99668.31;;;15.66;37.12
48364;BME280;34170;54.364;18.582;2023-02-19T09:18:32;99671.03;;;16.72;34.85
48364;BME280;34170;54.364;18.582;2023-02-19T09:21:01;99673.50;;;15.82;35.96
48364;BME280;34170;54.364;18.582;2023-02-19T09:23:34;99671.75;;;16.88;34.10
48364;BME280;34170;54.364;18.582;2023-02-19T09:26:04;99668.75;;;17.18;33.18
48364;BME280;34170;54.364;18.582;2023-02-19T09:28:33;99671.75;;;16.53;33.98
48364;BME280;34170;54.364;18.582;2023-02-19T09:31:05;99671.41;;;16.06;33.85
48364;BME280;34170;54.364;18.582;2023-02-19T09:33:32;99669.19;;;16.45;33.34
48364;BME280;34170;54.364;18.582;2023-02-19T09:36:01;99671.31;;;16.49;32.90
48364;BME280;34170;54.364;18.582;2023-02-19T09:38:28;99674.28;;;16.26;32.37
48364;BME280;34170;54.364;18.582;2023-02-19T09:40:58;99670.09;;;16.93;32.14
48364;BME280;34170;54.364;18.582;2023-02-19T09:43:32;99672.06;;;17.06;31.42
48364;BME280;34170;54.364;18.582;2023-02-19T09:46:17;99677.19;;;16.59;32.42
48364;BME280;34170;54.364;18.582;2023-02-19T09:48:48;99671.84;;;16.38;32.26
48364;BME280;34170;54.364;18.582;2023-02-19T09:51:16;99668.47;;;14.32;33.51
48364;BME280;34170;54.364;18.582;2023-02-19T09:53:46;99684.31;;;13.28;35.42
48364;BME280;34170;54.364;18.582;2023-02-19T09:56:16;99681.00;;;12.06;37.26
48364;BME280;34170;54.364;18.582;2023-02-19T09:58:51;99677.75;;;11.77;39.55
48364;BME280;34170;54.364;18.582;2023-02-19T10:01:21;99702.31;;;13.04;36.37
48364;BME280;34170;54.364;18.582;2023-02-19T10:03:50;99689.94;;;13.49;36.65
48364;BME280;34170;54.364;18.582;2023-02-19T10:06:24;99689.59;;;15.69;33.23
48364;BME280;34170;54.364;18.582;2023-02-19T10:09:20;99697.31;;;14.40;35.06
48364;BME280;34170;54.364;18.582;2023-02-19T10:11:48;99690.31;;;12.67;36.43
48364;BME280;34170;54.364;18.582;2023-02-19T10:14:41;99698.66;;;12.89;35.72
48364;BME280;34170;54.364;18.582;2023-02-19T10:17:23;99701.50;;;11.82;37.11
48364;BME280;34170;54.364;18.582;2023-02-19T10:19:51;99686.38;;;9.92;39.04
48364;BME280;34170;54.364;18.582;2023-02-19T10:22:20;99696.19;;;10.28;38.33
48364;BME280;34170;54.364;18.582;2023-02-19T10:24:51;99688.09;;;10.20;38.58
48364;BME280;34170;54.364;18.582;2023-02-19T10:27:19;99702.19;;;12.17;35.08
48364;BME280;34170;54.364;18.582;2023-02-19T10:29:48;99699.44;;;12.50;33.37
48364;BME280;34170;54.364;18.582;2023-02-19T10:32:18;99713.25;;;13.50;32.24
48364;BME280;34170;54.364;18.582;2023-02-19T10:35:14;99710.47;;;14.43;31.05
48364;BME280;34170;54.364;18.582;2023-02-19T10:37:44;99702.69;;;15.66;29.54
48364;BME280;34170;54.364;18.582;2023-02-19T10:40:21;99722.97;;;16.63;28.81
48364;BME280;34170;54.364;18.582;2023-02-19T10:42:53;99712.34;;;15.90;29.05
48364;BME280;34170;54.364;18.582;2023-02-19T10:45:22;99713.97;;;15.48;29.98
48364;BME280;34170;54.364;18.582;2023-02-19T10:47:51;99719.34;;;15.11;29.33
48364;BME280;34170;54.364;18.582;2023-02-19T10:50:30;99719.66;;;15.01;30.30
48364;BME280;34170;54.364;18.582;2023-02-19T10:52:59;99718.78;;;14.56;29.80
48364;BME280;34170;54.364;18.582;2023-02-19T10:57:57;99702.50;;;11.89;34.37
48364;BME280;34170;54.364;18.582;2023-02-19T11:00:27;99722.03;;;11.75;32.59
48364;BME280;34170;54.364;18.582;2023-02-19T11:03:19;99724.84;;;9.93;34.83
48364;BME280;34170;54.364;18.582;2023-02-19T11:05:57;99737.72;;;10.07;35.02
48364;BME280;34170;54.364;18.582;2023-02-19T11:08:27;99717.06;;;11.37;33.12
48364;BME280;34170;54.364;18.582;2023-02-19T11:10:55;99723.44;;;10.51;33.94
48364;BME280;34170;54.364;18.582;2023-02-19T11:13:28;99728.91;;;11.02;32.12
48364;BME280;34170;54.364;18.582;2023-02-19T11:15:58;99735.69;;;11.90;30.93
48364;BME280;34170;54.364;18.582;2023-02-19T11:18:32;99758.41;;;12.77;29.88
48364;BME280;34170;54.364;18.582;2023-02-19T11:21:06;99757.06;;;13.61;29.66
48364;BME280;34170;54.364;18.582;2023-02-19T11:23:37;99751.06;;;13.97;29.85
48364;BME280;34170;54.364;18.582;2023-02-19T11:26:18;99762.31;;;13.31;31.47
48364;BME280;34170;54.364;18.582;2023-02-19T11:28:58;99752.72;;;14.44;29.39
48364;BME280;34170;54.364;18.582;2023-02-19T11:31:32;99751.31;;;13.64;30.08
48364;BME280;34170;54.364;18.582;2023-02-19T11:34:24;99765.22;;;12.32;32.15
48364;BME280;34170;54.364;18.582;2023-02-19T11:37:11;99772.34;;;11.15;34.20
48364;BME280;34170;54.364;18.582;2023-02-19T11:39:41;99766.94;;;9.92;35.16
48364;BME280;34170;54.364;18.582;2023-02-19T11:42:47;99767.34;;;9.80;36.19
48364;BME280;34170;54.364;18.582;2023-02-19T11:45:38;99748.38;;;8.52;38.97
48364;BME280;34170;54.364;18.582;2023-02-19T11:48:25;99757.00;;;8.27;40.16
48364;BME280;34170;54.364;18.582;2023-02-19T11:54:03;99766.09;;;8.63;39.43
48364;BME280;34170;54.364;18.582;2023-02-19T11:56:36;99771.94;;;8.49;39.56
48364;BME280;34170;54.364;18.582;2023-02-19T11:59:30;99771.13;;;8.76;37.95
48364;BME280;34170;54.364;18.582;2023-02-19T12:05:18;99759.84;;;7.86;40.29
48364;BME280;34170;54.364;18.582;2023-02-19T12:16:13;99775.34;;;7.92;41.52
48364;BME280;34170;54.364;18.582;2023-02-19T12:18:56;99776.75;;;8.16;41.79
48364;BME280;34170;54.364;18.582;2023-02-19T12:27:00;99787.19;;;7.30;42.83
48364;BME280;34170;54.364;18.582;2023-02-19T12:45:30;99829.84;;;7.81;39.77
48364;BME280;34170;54.364;18.582;2023-02-19T12:48:38;99829.22;;;7.39;36.71
48364;BME280;34170;54.364;18.582;2023-02-19T12:51:20;99825.72;;;7.48;36.43
48364;BME280;34170;54.364;18.582;2023-02-19T12:54:04;99842.00;;;7.35;37.78
48364;BME280;34170;54.364;18.582;2023-02-19T12:56:37;99837.66;;;7.03;39.32
48364;BME280;34170;54.364;18.582;2023-02-19T12:59:20;99820.72;;;6.93;39.50
48364;BME280;34170;54.364;18.582;2023-02-19T13:07:01;99831.06;;;6.86;39.86
48364;BME280;34170;54.364;18.582;2023-02-19T13:09:42;99830.91;;;6.78;40.91
48364;BME280;34170;54.364;18.582;2023-02-19T13:12:28;99822.22;;;6.65;41.11
48364;BME280;34170;54.364;18.582;2023-02-19T13:14:59;99833.88;;;6.22;41.34
48364;BME280;34170;54.364;18.582;2023-02-19T13:20:25;99848.63;;;6.37;40.32
48364;BME280;34170;54.364;18.582;2023-02-19T13:23:30;99842.44;;;6.04;40.55
48364;BME280;34170;54.364;18.582;2023-02-19T13:26:36;99852.13;;;5.62;41.22
48364;BME280;34170;54.364;18.582;2023-02-19T13:29:17;99849.19;;;5.65;40.46
48364;BME280;34170;54.364;18.582;2023-02-19T13:37:24;99850.16;;;5.75;39.12
48364;BME280;34170;54.364;18.582;2023-02-19T13:39:54;99861.22;;;5.59;39.57
48364;BME280;34170;54.364;18.582;2023-02-19T13:42:34;99862.34;;;5.57;39.78
48364;BME280;34170;54.364;18.582;2023-02-19T13:45:04;99871.03;;;5.70;39.71
48364;BME280;34170;54.364;18.582;2023-02-19T13:50:25;99891.44;;;5.48;40.48
48364;BME280;34170;54.364;18.582;2023-02-19T13:52:54;99878.81;;;5.62;39.86
48364;BME280;34170;54.364;18.582;2023-02-19T13:58:34;99886.94;;;5.38;40.39
48364;BME280;34170;54.364;18.582;2023-02-19T14:01:04;99891.44;;;5.26;41.56
48364;BME280;34170;54.364;18.582;2023-02-19T14:06:06;99891.91;;;5.20;41.60
48364;BME280;34170;54.364;18.582;2023-02-19T14:08:56;99901.47;;;5.11;42.23
48364;BME280;34170;54.364;18.582;2023-02-19T14:22:47;99927.00;;;4.80;42.32
48364;BME280;34170;54.364;18.582;2023-02-19T14:27:51;99933.06;;;5.04;42.50
48364;BME280;34170;54.364;18.582;2023-02-19T14:30:21;99920.97;;;4.89;42.93
48364;BME280;34170;54.364;18.582;2023-02-19T14:32:50;99903.47;;;4.73;42.94
48364;BME280;34170;54.364;18.582;2023-02-19T14:35:40;99912.66;;;4.69;42.70
48364;BME280;34170;54.364;18.582;2023-02-19T14:38:19;99927.63;;;4.59;43.56
48364;BME280;34170;54.364;18.582;2023-02-19T14:40:47;99932.97;;;4.59;43.52
48364;BME280;34170;54.364;18.582;2023-02-19T14:43:18;99928.53;;;4.71;43.85
48364;BME280;34170;54.364;18.582;2023-02-19T14:45:51;99924.22;;;4.81;43.90
48364;BME280;34170;54.364;18.582;2023-02-19T14:48:24;99937.66;;;4.44;45.39
48364;BME280;34170;54.364;18.582;2023-02-19T14:50:56;99948.25;;;4.33;46.18
48364;BME280;34170;54.364;18.582;2023-02-19T14:53:26;99939.91;;;4.13;46.39
48364;BME280;34170;54.364;18.582;2023-02-19T14:55:55;99936.91;;;4.18;45.96
48364;BME280;34170;54.364;18.582;2023-02-19T14:58:32;99940.41;;;3.94;46.76
48364;BME280;34170;54.364;18.582;2023-02-19T15:00:59;99952.00;;;3.93;46.44